createdAt,value
2023-01-02T00:01:49.443Z,2.25
2023-01-02T00:04:54.704Z,3.05
2023-01-02T00:07:58.766Z,2.25
2023-01-02T00:11:03.074Z,1.98
2023-01-02T00:14:07.610Z,2.53
2023-01-02T00:17:11.959Z,4.07
2023-01-02T00:20:16.418Z,2.25
2023-01-02T00:23:22.479Z,2.10
2023-01-02T00:26:26.683Z,3.00
2023-01-02T00:29:31.033Z,2.40
2023-01-02T00:32:35.631Z,3.00
2023-01-02T00:35:40.028Z,2.00
2023-01-02T00:38:44.471Z,1.85
2023-01-02T00:41:48.755Z,3.72
2023-01-02T00:44:53.135Z,3.38
2023-01-02T00:47:57.628Z,2.67
2023-01-02T00:51:02.195Z,2.60
2023-01-02T00:54:06.824Z,3.08
2023-01-02T00:57:11.398Z,3.45
2023-01-02T01:00:23.621Z,2.97
2023-01-02T01:03:29.110Z,2.53
2023-01-02T01:06:34.374Z,3.05
2023-01-02T01:12:43.558Z,4.28
2023-01-02T01:15:47.839Z,2.17
2023-01-02T01:18:56.844Z,2.47
2023-01-02T01:22:01.320Z,2.78
2023-01-02T01:25:06.119Z,3.90
2023-01-02T01:28:10.497Z,3.15
2023-01-02T01:31:16.712Z,2.70
2023-01-02T01:34:20.804Z,3.80
2023-01-02T01:37:25.241Z,2.35
2023-01-02T01:40:36.876Z,3.20
2023-01-02T01:43:53.281Z,3.42
2023-01-02T01:46:57.359Z,2.65
2023-01-02T01:50:10.874Z,4.05
2023-01-02T01:53:18.351Z,2.92
2023-01-02T01:56:23.600Z,3.45
2023-01-02T01:59:27.928Z,3.17
2023-01-02T02:02:33.259Z,2.88
2023-01-02T02:05:39.112Z,3.53
2023-01-02T02:08:59.486Z,3.50
2023-01-02T02:12:06.534Z,3.90
2023-01-02T02:15:17.926Z,3.42
2023-01-02T02:18:48.685Z,3.72
2023-01-02T02:22:25.022Z,4.65
2023-01-02T02:25:48.358Z,4.43
2023-01-02T02:28:52.967Z,5.45
2023-01-02T02:32:23.301Z,4.15
2023-01-02T02:35:44.043Z,3.70
2023-01-02T02:38:58.482Z,5.15
2023-01-02T02:42:23.219Z,5.27
2023-01-02T02:45:49.889Z,4.38
2023-01-02T02:49:08.511Z,4.03
2023-01-02T02:52:39.986Z,4.57
2023-01-02T02:55:48.747Z,5.78
2023-01-02T02:58:54.361Z,5.35
2023-01-02T03:01:59.305Z,4.55
2023-01-02T03:05:07.161Z,4.32
2023-01-02T03:08:33.470Z,5.15
2023-01-02T03:12:00.382Z,5.28
2023-01-02T03:15:27.620Z,5.03
2023-01-02T03:18:50.604Z,4.22
2023-01-02T03:22:11.229Z,3.92
2023-01-02T03:25:16.075Z,4.55
2023-01-02T03:31:31.022Z,3.45
2023-01-02T03:34:38.730Z,4.18
2023-01-02T03:37:48.653Z,3.50
2023-01-02T03:41:05.275Z,3.25
2023-01-02T03:44:12.467Z,4.50
2023-01-02T03:47:54.175Z,3.30
2023-01-02T03:51:01.113Z,3.33
2023-01-02T03:54:06.402Z,3.58
2023-01-02T03:57:34.033Z,3.80
2023-01-02T04:00:49.258Z,4.25
2023-01-02T04:04:15.846Z,5.47
2023-01-02T04:07:34.282Z,4.40
2023-01-02T04:10:39.166Z,4.72
2023-01-02T04:13:51.294Z,4.18
2023-01-02T04:16:59.270Z,5.78
2023-01-02T04:20:08.273Z,4.95
2023-01-02T04:23:52.760Z,4.65
2023-01-02T04:27:07.771Z,4.82
2023-01-02T04:30:12.320Z,5.20
2023-01-02T04:33:19.155Z,4.60
2023-01-02T04:36:23.412Z,4.55
2023-01-02T04:39:29.166Z,4.80
2023-01-02T04:42:33.582Z,4.82
2023-01-02T04:45:38.184Z,5.55
2023-01-02T04:48:42.777Z,4.32
2023-01-02T04:51:47.195Z,5.00
2023-01-02T04:54:51.476Z,5.57
2023-01-02T04:57:58.043Z,4.80
2023-01-02T05:01:02.533Z,5.13
2023-01-02T05:04:06.872Z,5.07
2023-01-02T05:07:11.297Z,4.75
2023-01-02T05:10:15.517Z,5.03
2023-01-02T05:13:19.766Z,5.18
2023-01-02T05:16:24.132Z,6.10
2023-01-02T05:19:28.653Z,5.93
2023-01-02T05:22:51.655Z,5.47
2023-01-02T05:25:55.866Z,5.53
2023-01-02T05:29:00.929Z,6.03
2023-01-02T05:32:05.145Z,5.57
2023-01-02T05:35:09.820Z,5.57
2023-01-02T05:38:14.098Z,5.38
2023-01-02T05:41:20.461Z,6.25
2023-01-02T05:44:24.688Z,8.48
2023-01-02T05:47:29.085Z,5.75
2023-01-02T05:50:33.577Z,6.43
2023-01-02T05:53:38.848Z,5.82
2023-01-02T05:56:43.383Z,6.22
2023-01-02T05:59:47.592Z,5.43
2023-01-02T06:02:51.955Z,6.40
2023-01-02T06:05:56.286Z,5.57
2023-01-02T06:09:01.022Z,6.25
2023-01-02T06:12:05.669Z,6.13
2023-01-02T06:15:10.751Z,5.65
2023-01-02T06:18:14.963Z,6.43
2023-01-02T06:21:21.359Z,4.65
2023-01-02T06:24:25.958Z,7.20
2023-01-02T06:27:32.222Z,5.05
2023-01-02T06:30:36.659Z,7.47
2023-01-02T06:33:41.828Z,7.60
2023-01-02T06:36:46.589Z,6.78
2023-01-02T06:39:51.007Z,6.90
2023-01-02T06:42:59.894Z,7.63
2023-01-02T06:46:05.500Z,7.80
2023-01-02T06:49:10.110Z,7.00
2023-01-02T06:52:14.634Z,7.25
2023-01-02T06:55:19.146Z,6.50
2023-01-02T06:58:24.664Z,7.20
2023-01-02T07:01:29.986Z,6.72
2023-01-02T07:04:34.400Z,5.72
2023-01-02T07:07:38.831Z,6.97
2023-01-02T07:10:46.690Z,6.18
2023-01-02T07:13:56.298Z,7.03
2023-01-02T07:20:05.256Z,6.22
2023-01-02T07:23:09.712Z,6.53
2023-01-02T07:26:14.501Z,4.47
2023-01-02T07:29:18.911Z,6.63
2023-01-02T07:32:27.360Z,5.45
2023-01-02T07:35:32.041Z,4.80
2023-01-02T07:38:38.135Z,5.00
2023-01-02T07:41:43.639Z,5.47
2023-01-02T07:44:51.689Z,5.03
2023-01-02T07:47:56.321Z,5.18
2023-01-02T07:51:02.474Z,4.45
2023-01-02T07:54:06.677Z,4.75
2023-01-02T07:57:11.146Z,4.10
2023-01-02T08:00:17.444Z,4.30
2023-01-02T08:03:22.481Z,3.70
2023-01-02T08:06:26.590Z,3.90
2023-01-02T08:09:31.250Z,3.00
2023-01-02T08:12:35.549Z,2.70
2023-01-02T08:15:41.355Z,2.42
2023-01-02T08:18:47.404Z,1.98
2023-01-02T08:21:52.142Z,1.65
2023-01-02T08:24:56.670Z,1.58
2023-01-02T08:28:01.242Z,2.17
2023-01-02T08:31:14.969Z,1.50
2023-01-02T08:34:19.511Z,2.00
2023-01-02T08:37:23.763Z,2.47
2023-01-02T08:40:28.328Z,3.75
2023-01-02T08:43:36.687Z,4.60
2023-01-02T08:46:43.050Z,5.25
2023-01-02T08:49:47.303Z,6.20
2023-01-02T08:52:51.897Z,6.72
2023-01-02T08:56:26.932Z,6.70
2023-01-02T08:59:31.092Z,6.93
2023-01-02T09:02:35.963Z,8.13
2023-01-02T09:05:40.302Z,9.75
2023-01-02T09:08:44.792Z,9.45
2023-01-02T09:11:51.650Z,10.77
2023-01-02T09:14:55.950Z,12.20
2023-01-02T09:18:00.478Z,14.45
2023-01-02T09:21:05.154Z,15.10
2023-01-02T09:24:10.227Z,15.45
2023-01-02T09:30:19.522Z,14.35
2023-01-02T09:33:24.482Z,15.52
2023-01-02T09:39:33.351Z,15.60
2023-01-02T09:42:37.764Z,15.20
2023-01-02T09:45:45.089Z,15.15
2023-01-02T09:48:49.817Z,13.63
2023-01-02T09:51:54.645Z,12.65
2023-01-02T09:54:59.384Z,13.13
2023-01-02T09:58:40.349Z,15.43
2023-01-02T10:01:58.279Z,14.77
2023-01-02T10:05:17.844Z,13.65
2023-01-02T10:08:32.458Z,13.00
2023-01-02T10:11:49.148Z,13.27
2023-01-02T10:15:03.093Z,13.82
2023-01-02T10:18:52.404Z,14.48
2023-01-02T10:22:00.039Z,14.10
2023-01-02T10:25:36.741Z,14.75
2023-01-02T10:28:52.746Z,14.82
2023-01-02T10:32:06.851Z,13.32
2023-01-02T10:35:21.944Z,13.23
2023-01-02T10:38:35.926Z,12.05
2023-01-02T10:41:41.108Z,13.85
2023-01-02T10:44:47.476Z,13.00
2023-01-02T10:47:52.254Z,13.38
2023-01-02T10:51:01.074Z,13.52
2023-01-02T10:54:10.077Z,14.00
2023-01-02T10:57:20.767Z,16.58
2023-01-02T11:00:28.927Z,14.15
2023-01-02T11:03:34.374Z,13.70
2023-01-02T11:07:03.688Z,13.25
2023-01-02T11:10:32.641Z,12.43
2023-01-02T11:13:56.784Z,12.32
2023-01-02T11:17:14.095Z,14.07
2023-01-02T11:20:29.167Z,13.40
2023-01-02T11:23:44.393Z,12.88
2023-01-02T11:26:50.372Z,12.95
2023-01-02T11:29:54.819Z,13.57
2023-01-02T11:33:08.090Z,10.82
2023-01-02T11:36:12.502Z,11.30
2023-01-02T11:42:59.443Z,11.88
2023-01-02T11:46:09.418Z,12.13
2023-01-02T11:49:17.748Z,10.30
2023-01-02T11:52:30.895Z,10.73
2023-01-02T11:55:56.481Z,9.65
2023-01-02T11:59:13.798Z,9.23
2023-01-02T12:02:26.147Z,8.40
2023-01-02T12:06:00.119Z,9.80
2023-01-02T12:09:13.498Z,9.80
2023-01-02T12:12:38.050Z,9.00
2023-01-02T12:16:14.300Z,9.60
2023-01-02T12:19:18.406Z,8.85
2023-01-02T12:22:37.905Z,9.27
2023-01-02T12:25:45.543Z,7.60
2023-01-02T12:29:14.037Z,9.10
2023-01-02T12:32:53.491Z,8.55
2023-01-02T12:36:36.708Z,9.00
2023-01-02T12:40:19.746Z,8.57
2023-01-02T12:43:42.324Z,8.85
2023-01-02T12:47:15.595Z,10.10
2023-01-02T12:50:19.926Z,8.88
2023-01-02T12:54:20.401Z,7.75
2023-01-02T12:57:31.415Z,9.07
2023-01-02T13:01:06.979Z,8.98
2023-01-02T13:04:11.403Z,7.68
2023-01-02T13:07:42.103Z,7.03
2023-01-02T13:10:47.508Z,6.80
2023-01-02T13:13:53.331Z,7.10
2023-01-02T13:17:25.386Z,7.30
2023-01-02T13:20:44.722Z,7.18
2023-01-02T13:23:51.813Z,6.60
2023-01-02T13:26:58.127Z,7.07
2023-01-02T13:30:03.428Z,7.07
2023-01-02T13:36:45.948Z,7.50
2023-01-02T13:40:20.489Z,5.40
2023-01-02T13:43:31.327Z,6.03
2023-01-02T13:47:03.205Z,6.30
2023-01-02T13:50:19.777Z,6.45
2023-01-02T13:53:35.826Z,6.88
2023-01-02T13:57:31.266Z,6.30
2023-01-02T14:00:37.914Z,5.82
2023-01-02T14:03:42.177Z,6.13
2023-01-02T14:06:54.052Z,5.50
2023-01-02T14:10:24.701Z,6.22
2023-01-02T14:13:43.842Z,5.63
2023-01-02T14:17:15.921Z,6.70
2023-01-02T14:20:26.566Z,5.28
2023-01-02T14:23:40.000Z,5.95
2023-01-02T14:26:50.595Z,6.03
2023-01-02T14:30:03.024Z,6.32
2023-01-02T14:33:10.136Z,7.15
2023-01-02T14:36:14.558Z,7.05
2023-01-02T14:39:24.717Z,6.93
2023-01-02T14:42:52.551Z,8.05
2023-01-02T14:46:18.883Z,5.60
2023-01-02T14:49:27.111Z,4.65
2023-01-02T14:52:40.718Z,4.15
2023-01-02T14:55:46.907Z,4.00
2023-01-02T14:58:52.816Z,3.70
2023-01-02T15:02:04.739Z,2.90
2023-01-02T15:05:21.761Z,2.83
2023-01-02T15:08:46.571Z,2.50
2023-01-02T15:12:35.983Z,2.22
2023-01-02T15:15:43.450Z,2.40
2023-01-02T15:18:54.149Z,2.22
2023-01-02T15:21:58.420Z,1.95
2023-01-02T15:25:03.231Z,1.92
2023-01-02T15:28:30.178Z,2.03
2023-01-02T15:31:38.750Z,1.65
2023-01-02T15:34:43.269Z,1.20
2023-01-02T15:37:49.092Z,1.02
2023-01-02T15:40:56.366Z,1.70
2023-01-02T15:44:19.220Z,2.08
2023-01-02T15:47:27.856Z,1.50
2023-01-02T15:50:33.262Z,1.70
2023-01-02T15:53:41.216Z,2.13
2023-01-02T15:56:45.895Z,1.40
2023-01-02T15:59:50.485Z,1.70
2023-01-02T16:02:54.961Z,2.45
2023-01-02T16:06:07.103Z,1.55
2023-01-02T16:09:24.620Z,1.52
2023-01-02T16:12:28.998Z,2.38
2023-01-02T16:15:35.564Z,2.08
2023-01-02T16:18:43.235Z,2.65
2023-01-02T16:21:50.944Z,2.40
2023-01-02T16:25:10.391Z,1.73
2023-01-02T16:28:35.998Z,3.08
2023-01-02T16:31:59.349Z,1.80
2023-01-02T16:35:24.233Z,2.42
2023-01-02T16:38:28.892Z,1.38
2023-01-02T16:44:55.352Z,0.90
2023-01-02T16:48:00.936Z,2.05
2023-01-02T16:51:05.338Z,1.30
2023-01-02T16:54:13.790Z,1.00
2023-01-02T16:57:21.450Z,0.90
2023-01-02T17:00:26.259Z,1.25
2023-01-02T17:03:30.919Z,2.10
2023-01-02T17:06:35.695Z,1.27
2023-01-02T17:09:40.386Z,1.25
2023-01-02T17:12:45.104Z,1.10
2023-01-02T17:15:49.506Z,1.17
2023-01-02T17:18:53.639Z,1.33
2023-01-02T17:21:58.071Z,0.93
2023-01-02T17:25:04.726Z,1.15
2023-01-02T17:28:09.429Z,0.88
2023-01-02T17:31:15.207Z,0.63
2023-01-02T17:34:19.668Z,1.00
2023-01-02T17:37:24.593Z,1.15
2023-01-02T17:40:28.938Z,0.88
2023-01-02T17:43:33.618Z,0.75
2023-01-02T17:47:09.169Z,1.38
2023-01-02T17:50:02.928Z,1.80
2023-01-02T17:53:08.242Z,1.30
2023-01-02T17:56:20.788Z,2.05
2023-01-02T17:59:27.246Z,1.30
2023-01-02T18:02:32.151Z,1.48
2023-01-02T18:05:37.476Z,2.55
2023-01-02T18:11:46.911Z,1.53
2023-01-02T18:14:51.487Z,1.70
2023-01-02T18:17:56.207Z,1.80
2023-01-02T18:24:12.852Z,1.75
2023-01-02T18:27:24.281Z,1.83
2023-01-02T18:30:28.536Z,2.72
2023-01-02T18:33:33.292Z,2.17
2023-01-02T18:36:39.520Z,2.83
2023-01-02T18:39:44.141Z,2.80
2023-01-02T18:42:53.706Z,2.42
2023-01-02T18:46:06.227Z,2.65
2023-01-02T18:49:19.681Z,3.33
2023-01-02T18:52:28.053Z,5.05
2023-01-02T18:55:38.420Z,5.20
2023-01-02T18:58:54.639Z,4.10
2023-01-02T19:02:03.513Z,3.55
2023-01-02T19:05:25.108Z,4.78
2023-01-02T19:08:36.635Z,5.32
2023-01-02T19:11:59.676Z,5.57
2023-01-02T19:15:40.594Z,3.97
2023-01-02T19:18:52.087Z,4.38
2023-01-02T19:21:56.927Z,4.38
2023-01-02T19:25:22.006Z,4.95
2023-01-02T19:28:30.708Z,4.35
2023-01-02T19:31:49.128Z,4.65
2023-01-02T19:34:56.775Z,5.38
2023-01-02T19:38:26.577Z,5.35
2023-01-02T19:41:49.571Z,5.25
2023-01-02T19:45:00.852Z,4.57
2023-01-02T19:48:04.776Z,5.30
2023-01-02T19:51:09.175Z,4.50
2023-01-02T19:54:13.651Z,5.13
2023-01-02T19:57:20.692Z,4.78
2023-01-02T20:00:25.798Z,4.82
2023-01-02T20:03:30.184Z,3.88
2023-01-02T20:06:35.895Z,3.50
2023-01-02T20:09:40.267Z,3.55
2023-01-02T20:12:44.919Z,2.90
2023-01-02T20:15:49.643Z,3.45
2023-01-02T20:18:53.968Z,2.95
2023-01-02T20:21:58.614Z,3.10
2023-01-02T20:25:03.194Z,3.08
2023-01-02T20:28:07.610Z,2.60
2023-01-02T20:31:12.541Z,2.75
2023-01-02T20:34:17.352Z,2.47
2023-01-02T20:40:27.542Z,2.40
2023-01-02T20:43:32.136Z,2.60
2023-01-02T20:46:37.328Z,2.03
2023-01-02T20:49:42.169Z,2.20
2023-01-02T20:52:46.518Z,2.45
2023-01-02T20:55:51.076Z,2.33
2023-01-02T20:58:56.341Z,1.50
2023-01-02T21:02:00.912Z,2.50
2023-01-02T21:05:05.708Z,1.27
2023-01-02T21:08:10.092Z,1.88
2023-01-02T21:11:14.631Z,1.48
2023-01-02T21:14:19.193Z,1.15
2023-01-02T21:17:23.644Z,1.92
2023-01-02T21:20:28.226Z,1.13
2023-01-02T21:23:36.646Z,1.98
2023-01-02T21:26:41.440Z,1.10
2023-01-02T21:29:46.112Z,1.30
2023-01-02T21:32:50.610Z,1.65
2023-01-02T21:35:58.268Z,1.75
2023-01-02T21:39:03.621Z,1.17
2023-01-02T21:42:16.849Z,2.28
2023-01-02T21:45:22.107Z,1.95
2023-01-02T21:48:26.087Z,1.45
2023-01-02T21:51:32.957Z,1.63
2023-01-02T21:54:37.352Z,1.40
2023-01-02T22:01:06.388Z,2.22
2023-01-02T22:04:10.867Z,2.10
2023-01-02T22:07:31.570Z,1.63
2023-01-02T22:10:36.684Z,1.00
2023-01-02T22:13:40.769Z,1.60
2023-01-02T22:16:45.784Z,0.95
2023-01-02T22:19:50.090Z,0.95
2023-01-02T22:22:54.585Z,0.70
2023-01-02T22:25:59.038Z,1.92
2023-01-02T22:29:03.766Z,0.77
2023-01-02T22:35:13.151Z,0.57
2023-01-02T22:38:17.707Z,0.90
2023-01-02T22:41:22.164Z,2.15
2023-01-02T22:44:26.494Z,1.47
2023-01-02T22:47:33.091Z,0.88
2023-01-02T22:50:43.579Z,1.85
2023-01-02T22:53:48.937Z,0.82
2023-01-02T22:56:53.331Z,1.05
2023-01-02T22:59:57.247Z,1.53
2023-01-02T23:03:01.825Z,0.77
2023-01-02T23:06:06.644Z,1.67
2023-01-02T23:09:10.711Z,2.00
2023-01-02T23:12:15.936Z,1.23
2023-01-02T23:15:19.907Z,1.45
2023-01-02T23:18:43.128Z,1.33
2023-01-02T23:21:53.383Z,1.73
2023-01-02T23:24:57.557Z,1.52
2023-01-02T23:28:02.100Z,1.50
2023-01-02T23:31:06.925Z,1.17
2023-01-02T23:34:13.323Z,0.90
2023-01-02T23:37:18.085Z,1.30
2023-01-02T23:40:22.360Z,1.30
2023-01-02T23:43:27.330Z,1.13
2023-01-02T23:46:31.956Z,1.52
2023-01-02T23:49:36.863Z,2.25
2023-01-02T23:52:41.212Z,0.75
2023-01-02T23:55:45.946Z,2.35
2023-01-02T23:58:52.433Z,1.73
